NCAR-RAP Real-Time Weather Data

Output produced by METARs form (23 February 2020  00:22 UTC)
found at http://weather.rap.ucar.edu/surface/
 
KAVP 222354Z 17003KT 10SM CLR 03/M14 A3016 RMK AO2 SLP220 T00331144 10089 20022 53004
KAVP 222254Z 25004KT 10SM CLR 06/M14 A3015 RMK AO2 SLP215 T00611139
KAVP 222154Z 27013KT 10SM CLR 08/M14 A3014 RMK AO2 SLP213 T00831139